Time;durP1;ratioP1;P1;durP2;ratioP2;P2;SDS_P1;SDS_P2;PMS_P1;PMS_P2;Temp;Humidity;BMP_temperature;BMP_pressure;BME280_temperature;BME280_humidity;BME280_pressure;Samples;Min_cycle;Max_cycle;Signal;HPM_P1;HPM_P2
2024/03/24 00:01:51;;;;;;;14.23;11.15;;;;;;;;;;5095772;28;20454;-64
2024/03/24 00:04:17;;;;;;;14.57;11.18;;;;;;;;;;5096274;28;20065;-63
2024/03/24 00:06:42;;;;;;;16.15;11.75;;;;;;;;;;5096144;28;20020;-65
2024/03/24 00:09:09;;;;;;;17.13;11.80;;;;;;;;;;5095882;28;20507;-65
2024/03/24 00:11:34;;;;;;;19.23;11.68;;;;;;;;;;5110054;28;20331;-63
2024/03/24 00:13:59;;;;;;;15.90;11.70;;;;;;;;;;5116513;28;20118;-63
2024/03/24 00:16:25;;;;;;;12.85;10.70;;;;;;;;;;5116244;28;20062;-64
2024/03/24 00:18:50;;;;;;;15.75;11.65;;;;;;;;;;5116121;27;20438;-65
2024/03/24 00:21:15;;;;;;;18.48;12.43;;;;;;;;;;5114931;28;20028;-70
2024/03/24 00:23:41;;;;;;;16.90;12.63;;;;;;;;;;5115616;28;20028;-56
2024/03/24 00:26:06;;;;;;;16.98;13.60;;;;;;;;;;5103033;28;20407;-63
2024/03/24 00:28:31;;;;;;;18.00;12.27;;;;;;;;;;5094459;28;20096;-64
2024/03/24 00:30:57;;;;;;;17.33;12.02;;;;;;;;;;5094421;28;20020;-64
2024/03/24 00:33:22;;;;;;;17.25;11.93;;;;;;;;;;5094607;28;20745;-64
2024/03/24 00:35:47;;;;;;;16.90;11.52;;;;;;;;;;5095416;28;20046;-62
2024/03/24 00:38:13;;;;;;;16.20;12.23;;;;;;;;;;5095144;28;20076;-60
2024/03/24 00:40:38;;;;;;;14.23;11.50;;;;;;;;;;5106145;28;20457;-64
2024/03/24 00:43:04;;;;;;;15.63;12.48;;;;;;;;;;5115514;28;20514;-64
2024/03/24 00:45:29;;;;;;;19.77;13.80;;;;;;;;;;5115461;28;20035;-65
2024/03/24 00:47:56;;;;;;;19.17;13.77;;;;;;;;;;5115040;28;20421;-63
2024/03/24 00:50:21;;;;;;;20.13;13.32;;;;;;;;;;5105607;28;20024;-65
2024/03/24 00:52:46;;;;;;;17.75;13.02;;;;;;;;;;5094905;28;20055;-64
2024/03/24 00:55:12;;;;;;;16.45;12.48;;;;;;;;;;5095057;28;20354;-65
2024/03/24 00:57:37;;;;;;;16.63;12.35;;;;;;;;;;5094730;28;20028;-65
2024/03/24 01:00:02;;;;;;;17.67;12.65;;;;;;;;;;5093025;28;20028;-65
2024/03/24 01:02:29;;;;;;;16.92;12.68;;;;;;;;;;5094680;28;20421;-65
2024/03/24 01:04:54;;;;;;;18.38;12.90;;;;;;;;;;5094265;28;20104;-65
2024/03/24 01:07:20;;;;;;;19.65;13.55;;;;;;;;;;5094965;28;20016;-64
2024/03/24 01:09:45;;;;;;;17.83;12.85;;;;;;;;;;5094448;28;20028;-62
2024/03/24 01:12:10;;;;;;;15.88;11.50;;;;;;;;;;5094846;28;20055;-63
2024/03/24 01:14:36;;;;;;;18.00;11.90;;;;;;;;;;5094996;28;20031;-65
2024/03/24 01:17:01;;;;;;;18.08;12.43;;;;;;;;;;5098204;28;20063;-64
2024/03/24 01:19:26;;;;;;;17.98;12.95;;;;;;;;;;5113759;28;20074;-63
2024/03/24 01:21:52;;;;;;;17.83;12.70;;;;;;;;;;5114656;28;20015;-63
2024/03/24 01:24:17;;;;;;;17.58;12.45;;;;;;;;;;5112434;28;20024;-63
2024/03/24 01:26:43;;;;;;;15.98;11.65;;;;;;;;;;5114577;28;20452;-64
2024/03/24 01:29:10;;;;;;;17.33;11.55;;;;;;;;;;5094114;28;20103;-65
2024/03/24 01:31:35;;;;;;;16.10;11.80;;;;;;;;;;5094639;28;20841;-64
2024/03/24 01:34:01;;;;;;;14.95;11.45;;;;;;;;;;5093237;28;20081;-64
2024/03/24 01:36:26;;;;;;;16.63;10.80;;;;;;;;;;5092713;28;20039;-64
2024/03/24 01:38:51;;;;;;;16.10;11.55;;;;;;;;;;5111528;28;20030;-63
2024/03/24 01:41:16;;;;;;;18.85;12.52;;;;;;;;;;5114711;28;20110;-64
2024/03/24 01:43:42;;;;;;;19.27;13.05;;;;;;;;;;5114831;28;20024;-64
2024/03/24 01:46:07;;;;;;;17.85;12.60;;;;;;;;;;5113978;28;20431;-64
2024/03/24 01:48:32;;;;;;;18.27;13.23;;;;;;;;;;5099520;28;20054;-63
2024/03/24 01:50:58;;;;;;;19.48;13.50;;;;;;;;;;5094058;28;20024;-63
2024/03/24 01:53:24;;;;;;;20.92;14.75;;;;;;;;;;5092781;28;20139;-63
2024/03/24 01:55:49;;;;;;;20.80;14.88;;;;;;;;;;5092222;28;20051;-64
2024/03/24 01:58:14;;;;;;;20.88;14.68;;;;;;;;;;5096918;28;20031;-62
2024/03/24 02:00:40;;;;;;;21.35;14.93;;;;;;;;;;5094005;28;20020;-63
2024/03/24 02:03:05;;;;;;;22.40;14.68;;;;;;;;;;5093832;28;20085;-64
2024/03/24 02:05:30;;;;;;;22.55;15.00;;;;;;;;;;5093301;28;20405;-63
2024/03/24 02:07:55;;;;;;;23.40;14.70;;;;;;;;;;5096917;28;20096;-63
2024/03/24 02:10:23;;;;;;;21.30;14.57;;;;;;;;;;5114150;28;20034;-62
2024/03/24 02:12:49;;;;;;;21.13;15.18;;;;;;;;;;5114025;28;20020;-63
2024/03/24 02:15:14;;;;;;;19.15;14.15;;;;;;;;;;5114140;28;20032;-63
2024/03/24 02:17:40;;;;;;;22.75;15.05;;;;;;;;;;5110130;28;20722;-63
2024/03/24 02:20:06;;;;;;;21.95;15.50;;;;;;;;;;5110159;28;20667;-64
2024/03/24 02:22:37;;;;;;;20.45;15.27;;;;;;;;;;5093313;28;20024;-62
2024/03/24 02:25:04;;;;;;;21.77;14.40;;;;;;;;;;5093118;28;20024;-64
2024/03/24 02:27:29;;;;;;;19.92;14.25;;;;;;;;;;5093539;28;20030;-65
2024/03/24 02:29:55;;;;;;;21.52;13.90;;;;;;;;;;5113841;28;20011;-63
2024/03/24 02:32:20;;;;;;;22.35;14.55;;;;;;;;;;5113521;28;20080;-63
2024/03/24 02:34:45;;;;;;;21.15;14.65;;;;;;;;;;5113622;28;20380;-63
2024/03/24 02:37:10;;;;;;;22.52;14.10;;;;;;;;;;5113050;28;20132;-63
2024/03/24 02:39:36;;;;;;;20.02;13.95;;;;;;;;;;5094639;28;20110;-63
2024/03/24 02:42:01;;;;;;;20.02;13.95;;;;;;;;;;5093002;28;20089;-64
2024/03/24 02:44:27;;;;;;;19.67;13.93;;;;;;;;;;5092946;28;20099;-63
2024/03/24 02:46:52;;;;;;;21.33;14.35;;;;;;;;;;5091836;28;20386;-64
2024/03/24 02:49:17;;;;;;;21.23;14.05;;;;;;;;;;5107831;28;20089;-63
2024/03/24 02:51:43;;;;;;;21.77;14.02;;;;;;;;;;5111973;28;20016;-63
2024/03/24 02:54:09;;;;;;;18.63;13.48;;;;;;;;;;5112915;28;20055;-65
2024/03/24 02:56:34;;;;;;;21.75;13.60;;;;;;;;;;5112772;28;20067;-63
2024/03/24 02:58:59;;;;;;;19.40;13.57;;;;;;;;;;5100338;28;20028;-63
2024/03/24 03:01:24;;;;;;;21.52;14.00;;;;;;;;;;5092687;28;20035;-63
2024/03/24 03:03:50;;;;;;;20.25;14.20;;;;;;;;;;5093153;28;20039;-62
2024/03/24 03:06:15;;;;;;;17.85;13.63;;;;;;;;;;5091520;28;20020;-63
2024/03/24 03:08:40;;;;;;;16.13;12.55;;;;;;;;;;5105499;28;20062;-64
2024/03/24 03:11:06;;;;;;;18.30;12.95;;;;;;;;;;5113053;28;20529;-63
2024/03/24 03:13:31;;;;;;;16.35;12.05;;;;;;;;;;5112828;28;20019;-63
2024/03/24 03:15:57;;;;;;;17.10;12.57;;;;;;;;;;5111530;28;20035;-65
2024/03/24 03:18:22;;;;;;;19.98;12.68;;;;;;;;;;5102628;28;20032;-64
2024/03/24 03:20:47;;;;;;;14.70;11.68;;;;;;;;;;5092881;28;20012;-62
2024/03/24 03:23:13;;;;;;;18.95;12.43;;;;;;;;;;5095396;28;20047;-63
2024/03/24 03:25:38;;;;;;;16.10;12.00;;;;;;;;;;5099232;28;20043;-62
2024/03/24 03:28:04;;;;;;;19.23;12.52;;;;;;;;;;5106494;28;20064;-63
2024/03/24 03:30:29;;;;;;;15.73;11.85;;;;;;;;;;5119348;27;20343;-62
2024/03/24 03:32:54;;;;;;;15.15;11.07;;;;;;;;;;5119575;27;20023;-63
2024/03/24 03:35:19;;;;;;;17.05;11.30;;;;;;;;;;5118861;28;20015;-64
2024/03/24 03:37:45;;;;;;;17.17;10.88;;;;;;;;;;5114016;28;20027;-63
2024/03/24 03:40:10;;;;;;;16.70;11.45;;;;;;;;;;5098879;28;20099;-65
2024/03/24 03:42:36;;;;;;;14.85;9.85;;;;;;;;;;5098869;28;20023;-64
2024/03/24 03:45:01;;;;;;;15.70;11.20;;;;;;;;;;5099232;28;20020;-62
2024/03/24 03:47:26;;;;;;;15.00;9.57;;;;;;;;;;5100492;28;20028;-62
2024/03/24 03:49:52;;;;;;;17.40;11.80;;;;;;;;;;5119534;28;20032;-63
2024/03/24 03:52:25;;;;;;;15.07;10.98;;;;;;;;;;5119566;27;20023;-63
2024/03/24 03:54:51;;;;;;;15.57;10.93;;;;;;;;;;5119390;28;20047;-63
2024/03/24 03:57:16;;;;;;;17.42;11.88;;;;;;;;;;5119193;27;20397;-63
2024/03/24 03:59:41;;;;;;;15.90;11.70;;;;;;;;;;5097839;28;20510;-65
2024/03/24 04:02:06;;;;;;;15.65;11.32;;;;;;;;;;5098771;28;20024;-66
2024/03/24 04:04:32;;;;;;;15.73;11.52;;;;;;;;;;5099119;28;20035;-66
2024/03/24 04:06:58;;;;;;;16.63;12.02;;;;;;;;;;5098779;28;20028;-64
2024/03/24 04:09:23;;;;;;;16.60;11.93;;;;;;;;;;5115880;28;20030;-65
2024/03/24 04:11:48;;;;;;;18.33;13.52;;;;;;;;;;5118005;28;20106;-64
2024/03/24 04:14:14;;;;;;;17.65;12.00;;;;;;;;;;5119449;27;20184;-65
2024/03/24 04:16:40;;;;;;;17.67;12.65;;;;;;;;;;5119216;28;20047;-64
2024/03/24 04:19:06;;;;;;;20.20;13.50;;;;;;;;;;5103837;27;20405;-62
2024/03/24 04:21:32;;;;;;;19.15;12.57;;;;;;;;;;5098638;28;20319;-63
2024/03/24 04:23:57;;;;;;;20.58;13.15;;;;;;;;;;5098825;28;20015;-62
2024/03/24 04:26:22;;;;;;;20.20;12.77;;;;;;;;;;5098952;28;20020;-64
2024/03/24 04:28:48;;;;;;;18.95;13.13;;;;;;;;;;5110150;28;20393;-65
2024/03/24 04:31:13;;;;;;;18.52;12.48;;;;;;;;;;5118811;28;20081;-64
2024/03/24 04:33:39;;;;;;;20.60;13.13;;;;;;;;;;5118543;28;20361;-65
2024/03/24 04:36:05;;;;;;;20.60;11.88;;;;;;;;;;5114735;28;20054;-63
2024/03/24 04:38:30;;;;;;;18.45;11.93;;;;;;;;;;5106329;28;20434;-63
2024/03/24 04:40:55;;;;;;;20.95;12.95;;;;;;;;;;5095487;28;20100;-61
2024/03/24 04:43:20;;;;;;;19.05;11.80;;;;;;;;;;5095324;28;20035;-63
2024/03/24 04:45:46;;;;;;;17.20;11.15;;;;;;;;;;5095083;28;20024;-64
2024/03/24 04:48:11;;;;;;;17.23;11.52;;;;;;;;;;5100971;28;20035;-63
2024/03/24 04:50:37;;;;;;;16.95;10.88;;;;;;;;;;5115398;28;20031;-63
2024/03/24 04:53:03;;;;;;;16.98;10.43;;;;;;;;;;5115293;28;20334;-61
2024/03/24 04:55:28;;;;;;;13.77;10.15;;;;;;;;;;5115200;28;20111;-62
2024/03/24 04:57:54;;;;;;;15.77;9.98;;;;;;;;;;5115977;28;20161;-63
2024/03/24 05:00:19;;;;;;;13.73;9.82;;;;;;;;;;5113315;28;20421;-64
2024/03/24 05:02:45;;;;;;;14.93;10.82;;;;;;;;;;5115186;28;20027;-62
2024/03/24 05:05:11;;;;;;;13.70;9.25;;;;;;;;;;5115421;28;20027;-63
2024/03/24 05:07:37;;;;;;;13.65;9.40;;;;;;;;;;5114231;28;20026;-64
2024/03/24 05:10:03;;;;;;;14.98;9.32;;;;;;;;;;5114439;28;20015;-63
2024/03/24 05:12:28;;;;;;;14.15;9.70;;;;;;;;;;5115208;28;20035;-61
2024/03/24 05:14:53;;;;;;;14.52;9.38;;;;;;;;;;5100605;28;20062;-64
2024/03/24 05:17:19;;;;;;;12.93;9.15;;;;;;;;;;5094545;28;20032;-62
2024/03/24 05:19:44;;;;;;;14.45;9.93;;;;;;;;;;5094280;28;20092;-63
2024/03/24 05:22:09;;;;;;;14.88;10.18;;;;;;;;;;5094778;28;20043;-64
2024/03/24 05:24:35;;;;;;;15.23;10.07;;;;;;;;;;5076806;28;20343;-64
2024/03/24 05:27:01;;;;;;;17.52;10.35;;;;;;;;;;5094008;28;20031;-61
2024/03/24 05:29:27;;;;;;;14.40;9.43;;;;;;;;;;5095538;28;20030;-65
2024/03/24 05:31:57;;;;;;;14.65;10.05;;;;;;;;;;5093592;28;20065;-62
2024/03/24 05:34:23;;;;;;;16.98;10.35;;;;;;;;;;5095234;28;20047;-63
2024/03/24 05:36:48;;;;;;;13.82;9.70;;;;;;;;;;5093911;28;20802;-62
2024/03/24 05:39:14;;;;;;;15.20;9.75;;;;;;;;;;5094232;28;20059;-60
2024/03/24 05:41:39;;;;;;;12.65;8.95;;;;;;;;;;5093998;28;20336;-60
2024/03/24 05:44:04;;;;;;;13.32;9.05;;;;;;;;;;5093747;28;20020;-61
2024/03/24 05:46:29;;;;;;;11.73;8.65;;;;;;;;;;5093217;28;20077;-59
2024/03/24 05:48:55;;;;;;;13.57;8.50;;;;;;;;;;5111080;28;20032;-62
2024/03/24 05:51:20;;;;;;;14.18;8.63;;;;;;;;;;5113645;28;20020;-62
2024/03/24 05:53:46;;;;;;;13.20;8.45;;;;;;;;;;5114387;28;20050;-60
2024/03/24 05:56:13;;;;;;;12.07;8.77;;;;;;;;;;5112630;28;20043;-59
2024/03/24 05:58:39;;;;;;;13.25;8.57;;;;;;;;;;5114151;28;20023;-60
2024/03/24 06:01:04;;;;;;;11.07;8.38;;;;;;;;;;5114605;28;20063;-60
2024/03/24 06:03:30;;;;;;;12.73;8.77;;;;;;;;;;5105609;28;20386;-60
2024/03/24 06:05:56;;;;;;;12.52;8.25;;;;;;;;;;5093764;28;20112;-62
2024/03/24 06:08:23;;;;;;;12.65;8.68;;;;;;;;;;5093323;28;20034;-64
2024/03/24 06:10:48;;;;;;;13.77;9.63;;;;;;;;;;5093687;28;20338;-68
2024/03/24 06:13:13;;;;;;;14.30;9.27;;;;;;;;;;5073321;28;20026;-64
2024/03/24 06:15:39;;;;;;;13.43;9.85;;;;;;;;;;5088131;28;20169;-65
2024/03/24 06:18:05;;;;;;;13.93;9.60;;;;;;;;;;5092586;28;20056;-65
2024/03/24 06:20:31;;;;;;;16.48;10.00;;;;;;;;;;5096437;28;20020;-62
2024/03/24 06:22:56;;;;;;;16.10;11.15;;;;;;;;;;5092391;28;20118;-63
2024/03/24 06:25:22;;;;;;;16.33;11.07;;;;;;;;;;5093021;28;20431;-63
2024/03/24 06:27:47;;;;;;;17.50;11.82;;;;;;;;;;5093356;28;20031;-63
2024/03/24 06:30:13;;;;;;;18.13;10.68;;;;;;;;;;5092995;28;20028;-64
2024/03/24 06:32:38;;;;;;;18.15;11.82;;;;;;;;;;5093115;28;20056;-62
2024/03/24 06:35:04;;;;;;;17.88;12.85;;;;;;;;;;5110426;28;20437;-63
2024/03/24 06:37:29;;;;;;;19.90;13.30;;;;;;;;;;5113588;28;20065;-64
2024/03/24 06:39:54;;;;;;;20.33;13.13;;;;;;;;;;5113349;28;20035;-64
2024/03/24 06:42:20;;;;;;;20.70;13.32;;;;;;;;;;5112365;28;20539;-63
2024/03/24 06:44:50;;;;;;;18.95;13.38;;;;;;;;;;5113139;27;20024;-63
2024/03/24 06:47:16;;;;;;;21.48;13.90;;;;;;;;;;5112556;28;20032;-63
2024/03/24 06:49:42;;;;;;;21.10;13.80;;;;;;;;;;5095751;28;20032;-63
2024/03/24 06:52:08;;;;;;;20.10;12.85;;;;;;;;;;5092940;28;20084;-62
2024/03/24 06:54:33;;;;;;;22.63;13.95;;;;;;;;;;5092948;28;20067;-63
2024/03/24 06:56:58;;;;;;;23.40;13.85;;;;;;;;;;5092402;28;20047;-64
2024/03/24 06:59:24;;;;;;;25.88;14.80;;;;;;;;;;5092395;28;20032;-63
2024/03/24 07:01:49;;;;;;;24.23;14.05;;;;;;;;;;5092739;28;20085;-63
2024/03/24 07:04:15;;;;;;;24.10;14.90;;;;;;;;;;5107330;28;20354;-63
2024/03/24 07:06:41;;;;;;;21.50;13.57;;;;;;;;;;5102756;28;20099;-64
2024/03/24 07:09:06;;;;;;;20.98;14.45;;;;;;;;;;5092263;28;20099;-64
2024/03/24 07:11:32;;;;;;;22.33;14.27;;;;;;;;;;5092269;28;20024;-63
2024/03/24 07:13:57;;;;;;;22.08;13.80;;;;;;;;;;5091047;28;20032;-62
2024/03/24 07:16:22;;;;;;;23.25;13.95;;;;;;;;;;5092410;28;20078;-62
2024/03/24 07:18:48;;;;;;;19.45;13.48;;;;;;;;;;5097584;28;20399;-63
2024/03/24 07:21:13;;;;;;;21.70;12.82;;;;;;;;;;5112507;28;20024;-64
2024/03/24 07:23:39;;;;;;;25.13;13.77;;;;;;;;;;5113187;28;20031;-64
2024/03/24 07:26:04;;;;;;;22.25;13.52;;;;;;;;;;5113411;28;20331;-63
2024/03/24 07:28:29;;;;;;;24.63;14.88;;;;;;;;;;5112291;28;20043;-64
2024/03/24 07:30:54;;;;;;;22.20;13.27;;;;;;;;;;5111690;28;20178;-64
2024/03/24 07:33:20;;;;;;;21.88;13.38;;;;;;;;;;5109911;28;20011;-63
2024/03/24 07:35:45;;;;;;;23.52;12.02;;;;;;;;;;5110033;28;20035;-63
2024/03/24 07:38:11;;;;;;;21.17;13.27;;;;;;;;;;5094763;28;20016;-62
2024/03/24 07:40:37;;;;;;;21.10;13.15;;;;;;;;;;5092263;28;20039;-61
2024/03/24 07:43:02;;;;;;;21.55;12.90;;;;;;;;;;5091501;28;20020;-64
2024/03/24 07:45:30;;;;;;;21.33;13.40;;;;;;;;;;5074513;28;20028;-66
2024/03/24 07:47:55;;;;;;;22.20;12.52;;;;;;;;;;5092464;28;20453;-65
2024/03/24 07:50:20;;;;;;;24.05;14.10;;;;;;;;;;5092063;28;20032;-66
2024/03/24 07:52:46;;;;;;;21.75;13.85;;;;;;;;;;5091782;28;20055;-65
2024/03/24 07:55:12;;;;;;;20.83;13.88;;;;;;;;;;5094720;28;20094;-65
2024/03/24 07:57:38;;;;;;;25.48;14.07;;;;;;;;;;5112577;28;20427;-61
2024/03/24 08:00:04;;;;;;;25.17;14.88;;;;;;;;;;5111791;28;20020;-64
2024/03/24 08:02:30;;;;;;;23.52;14.65;;;;;;;;;;5111884;28;20053;-65
2024/03/24 08:04:55;;;;;;;24.38;14.90;;;;;;;;;;5112845;28;20444;-65
2024/03/24 08:07:20;;;;;;;23.30;14.23;;;;;;;;;;5112951;28;20102;-65
2024/03/24 08:09:45;;;;;;;25.65;15.00;;;;;;;;;;5114012;28;20084;-66
2024/03/24 08:12:11;;;;;;;22.10;14.07;;;;;;;;;;5116095;28;20050;-64
2024/03/24 08:14:36;;;;;;;22.92;14.90;;;;;;;;;;5116649;28;20031;-65
2024/03/24 08:17:01;;;;;;;24.17;14.85;;;;;;;;;;5110704;28;20039;-66
2024/03/24 08:19:27;;;;;;;24.20;15.43;;;;;;;;;;5095768;28;20040;-65
2024/03/24 08:21:54;;;;;;;24.80;15.25;;;;;;;;;;5095482;28;20054;-65
2024/03/24 08:24:19;;;;;;;26.13;17.23;;;;;;;;;;5092566;28;20139;-64
2024/03/24 08:26:44;;;;;;;26.40;17.08;;;;;;;;;;5094765;28;20110;-64
2024/03/24 08:29:10;;;;;;;24.73;16.35;;;;;;;;;;5094739;28;20059;-63
2024/03/24 08:31:35;;;;;;;29.27;17.90;;;;;;;;;;5094497;28;20370;-62
2024/03/24 08:34:00;;;;;;;35.17;19.13;;;;;;;;;;5094652;28;20438;-65
2024/03/24 08:36:26;;;;;;;35.85;21.60;;;;;;;;;;5093625;28;20366;-66
2024/03/24 08:38:52;;;;;;;32.35;21.08;;;;;;;;;;5094608;28;20024;-66
2024/03/24 08:41:17;;;;;;;37.53;21.38;;;;;;;;;;5094547;28;20028;-66
2024/03/24 08:43:43;;;;;;;35.35;20.77;;;;;;;;;;5093430;28;20022;-66
2024/03/24 08:46:08;;;;;;;33.08;19.70;;;;;;;;;;5093421;28;20103;-66
2024/03/24 08:48:33;;;;;;;32.05;19.98;;;;;;;;;;5094698;28;20107;-64
2024/03/24 08:50:58;;;;;;;31.10;18.05;;;;;;;;;;5091501;28;20843;-64
2024/03/24 08:53:27;;;;;;;31.42;19.45;;;;;;;;;;5092876;28;20451;-65
2024/03/24 08:55:52;;;;;;;29.77;18.48;;;;;;;;;;5076541;28;20036;-66
2024/03/24 08:58:18;;;;;;;35.53;19.73;;;;;;;;;;5096138;28;20024;-66
2024/03/24 09:00:45;;;;;;;27.75;17.98;;;;;;;;;;5092242;28;20342;-65
2024/03/24 09:03:10;;;;;;;34.08;18.30;;;;;;;;;;5094313;28;20016;-64
2024/03/24 09:05:36;;;;;;;34.78;18.30;;;;;;;;;;5094690;28;20028;-65
2024/03/24 09:08:01;;;;;;;26.52;17.30;;;;;;;;;;5094266;28;20016;-65
2024/03/24 09:10:27;;;;;;;28.45;17.60;;;;;;;;;;5093851;28;20024;-64
2024/03/24 09:12:52;;;;;;;27.08;16.23;;;;;;;;;;5095557;28;20030;-65
2024/03/24 09:15:18;;;;;;;25.40;16.08;;;;;;;;;;5094117;28;20404;-65
2024/03/24 09:17:44;;;;;;;25.83;16.70;;;;;;;;;;5093987;28;20027;-65
2024/03/24 09:20:09;;;;;;;29.02;16.48;;;;;;;;;;5093851;28;20028;-65
2024/03/24 09:22:35;;;;;;;24.42;15.23;;;;;;;;;;5093855;28;20024;-66
2024/03/24 09:25:00;;;;;;;26.67;15.57;;;;;;;;;;5093577;28;20097;-65
2024/03/24 09:27:25;;;;;;;27.00;15.73;;;;;;;;;;5091722;28;20332;-65
2024/03/24 09:29:51;;;;;;;22.75;13.80;;;;;;;;;;5092043;28;20024;-65
2024/03/24 09:32:16;;;;;;;27.40;15.70;;;;;;;;;;5093535;28;20084;-64
2024/03/24 09:34:42;;;;;;;24.30;14.57;;;;;;;;;;5093229;28;20012;-63
2024/03/24 09:37:08;;;;;;;28.20;15.68;;;;;;;;;;5093411;28;20039;-66
2024/03/24 09:39:33;;;;;;;23.98;15.45;;;;;;;;;;5093291;28;20023;-68
2024/03/24 09:41:59;;;;;;;25.67;15.35;;;;;;;;;;5093113;28;20031;-66
2024/03/24 09:44:25;;;;;;;28.05;15.75;;;;;;;;;;5073455;28;20481;-62
2024/03/24 09:46:50;;;;;;;23.83;14.85;;;;;;;;;;5093212;28;20445;-65
2024/03/24 09:49:16;;;;;;;27.13;15.43;;;;;;;;;;5091862;28;20023;-63
2024/03/24 09:51:42;;;;;;;25.15;15.57;;;;;;;;;;5093348;28;20327;-65
2024/03/24 09:54:11;;;;;;;23.85;14.50;;;;;;;;;;5092446;28;20063;-63
2024/03/24 09:56:37;;;;;;;22.08;13.50;;;;;;;;;;5090016;28;20040;-65
2024/03/24 09:59:03;;;;;;;21.75;14.23;;;;;;;;;;5092960;28;20043;-64
2024/03/24 10:01:33;;;;;;;21.80;14.05;;;;;;;;;;5092124;28;20022;-64
2024/03/24 10:03:59;;;;;;;21.98;13.75;;;;;;;;;;5090044;28;20051;-63
2024/03/24 10:06:25;;;;;;;22.20;13.55;;;;;;;;;;5090242;28;20055;-65
2024/03/24 10:08:50;;;;;;;24.55;15.30;;;;;;;;;;5091792;28;20040;-64
2024/03/24 10:11:26;;;;;;;24.02;14.65;;;;;;;;;;5090569;28;20016;-64
2024/03/24 10:13:52;;;;;;;23.02;14.98;;;;;;;;;;5092501;28;20013;-63
2024/03/24 10:16:17;;;;;;;26.88;15.35;;;;;;;;;;5092511;28;20488;-66
2024/03/24 10:18:42;;;;;;;23.05;14.68;;;;;;;;;;5089120;28;20023;-65
2024/03/24 10:21:11;;;;;;;22.15;14.55;;;;;;;;;;5091728;28;20020;-64
2024/03/24 10:23:37;;;;;;;20.63;13.63;;;;;;;;;;5088782;28;20020;-67
2024/03/24 10:26:02;;;;;;;24.73;14.80;;;;;;;;;;5095711;28;20031;-67
2024/03/24 10:28:28;;;;;;;24.10;14.85;;;;;;;;;;5091524;28;20032;-63
2024/03/24 10:31:03;;;;;;;24.00;15.70;;;;;;;;;;5090874;28;20052;-61
2024/03/24 10:33:30;;;;;;;25.05;14.57;;;;;;;;;;5092882;28;20114;-65
2024/03/24 10:35:57;;;;;;;21.40;14.23;;;;;;;;;;5092842;28;20101;-63
2024/03/24 10:38:22;;;;;;;22.50;14.82;;;;;;;;;;5092890;28;20024;-65
2024/03/24 10:40:47;;;;;;;23.98;15.50;;;;;;;;;;5102830;28;20127;-64
2024/03/24 10:43:13;;;;;;;24.35;16.45;;;;;;;;;;5113190;28;20041;-54
2024/03/24 10:45:38;;;;;;;22.50;14.57;;;;;;;;;;5113171;28;20442;-62
2024/03/24 10:48:06;;;;;;;25.02;16.90;;;;;;;;;;5097904;28;20032;-64
2024/03/24 10:50:34;;;;;;;28.13;17.15;;;;;;;;;;5092636;28;20093;-64
2024/03/24 10:53:02;;;;;;;27.35;16.67;;;;;;;;;;5092202;28;20125;-66
2024/03/24 10:55:28;;;;;;;25.73;16.33;;;;;;;;;;5091599;28;20403;-64
2024/03/24 10:57:55;;;;;;;25.70;16.50;;;;;;;;;;5092558;28;20028;-63
2024/03/24 11:00:27;;;;;;;29.25;16.63;;;;;;;;;;5091455;28;20023;-65
2024/03/24 11:02:53;;;;;;;24.75;15.57;;;;;;;;;;5092810;28;20020;-67
2024/03/24 11:05:19;;;;;;;26.98;15.93;;;;;;;;;;5092733;28;20499;-68
2024/03/24 11:07:44;;;;;;;27.33;16.20;;;;;;;;;;5093103;28;20028;-57
2024/03/24 11:10:10;;;;;;;25.13;15.77;;;;;;;;;;5093125;28;20015;-67
2024/03/24 11:12:36;;;;;;;23.13;15.65;;;;;;;;;;5106466;28;20311;-65
2024/03/24 11:15:01;;;;;;;25.50;16.15;;;;;;;;;;5111759;28;20011;-66
2024/03/24 11:17:27;;;;;;;24.67;14.93;;;;;;;;;;5112900;28;20112;-66
2024/03/24 11:19:52;;;;;;;27.77;18.23;;;;;;;;;;5111732;28;20030;-67
2024/03/24 11:22:33;;;;;;;29.05;16.48;;;;;;;;;;5112887;28;20054;-65
2024/03/24 11:24:58;;;;;;;24.42;15.00;;;;;;;;;;5095168;28;20020;-70
2024/03/24 11:27:29;;;;;;;23.75;14.13;;;;;;;;;;5092025;28;20077;-65
2024/03/24 11:29:55;;;;;;;21.95;15.38;;;;;;;;;;5092231;28;20052;-64
2024/03/24 11:32:23;;;;;;;22.77;13.88;;;;;;;;;;5092044;28;20055;-65
2024/03/24 11:34:57;;;;;;;23.40;13.45;;;;;;;;;;5090881;28;20079;-63
2024/03/24 11:37:30;;;;;;;20.98;13.93;;;;;;;;;;5096428;28;20032;-64
2024/03/24 11:39:55;;;;;;;21.60;12.50;;;;;;;;;;5110812;28;20019;-64
2024/03/24 11:42:30;;;;;;;20.88;12.75;;;;;;;;;;5110722;28;20077;-66
2024/03/24 11:44:55;;;;;;;20.27;13.10;;;;;;;;;;5112175;28;20020;-65
2024/03/24 11:47:21;;;;;;;20.90;12.13;;;;;;;;;;5114983;28;20252;-65
2024/03/24 11:49:47;;;;;;;22.05;14.23;;;;;;;;;;5116038;28;20016;-59
2024/03/24 11:52:14;;;;;;;19.83;13.25;;;;;;;;;;5115644;28;20020;-66
2024/03/24 11:54:40;;;;;;;21.13;13.60;;;;;;;;;;5116665;28;20051;-65
2024/03/24 11:57:05;;;;;;;20.98;13.32;;;;;;;;;;5116551;28;20043;-67
2024/03/24 11:59:32;;;;;;;21.60;13.38;;;;;;;;;;5116519;28;20106;-65
2024/03/24 12:01:57;;;;;;;22.27;13.35;;;;;;;;;;5109862;28;20019;-66
2024/03/24 12:04:24;;;;;;;18.25;12.77;;;;;;;;;;5095752;28;20032;-67
2024/03/24 12:06:50;;;;;;;24.67;13.88;;;;;;;;;;5095220;28;20347;-65
2024/03/24 12:09:15;;;;;;;18.98;12.82;;;;;;;;;;5096058;28;20023;-65
2024/03/24 12:11:40;;;;;;;21.88;11.95;;;;;;;;;;5095829;28;20401;-65
2024/03/24 12:14:09;;;;;;;18.35;13.00;;;;;;;;;;5095877;28;20024;-66
2024/03/24 12:16:34;;;;;;;21.38;13.25;;;;;;;;;;5100190;28;20028;-66
2024/03/24 12:19:00;;;;;;;21.10;13.45;;;;;;;;;;5115263;28;20441;-66
2024/03/24 12:21:25;;;;;;;21.25;12.63;;;;;;;;;;5115883;28;20031;-64
2024/03/24 12:23:51;;;;;;;23.65;13.63;;;;;;;;;;5115945;28;20377;-64
2024/03/24 12:26:20;;;;;;;21.00;12.82;;;;;;;;;;5116289;28;20035;-65
2024/03/24 12:28:55;;;;;;;17.13;12.05;;;;;;;;;;5114411;28;20016;-66
2024/03/24 12:31:20;;;;;;;18.40;12.32;;;;;;;;;;5116074;28;20027;-62
2024/03/24 12:33:49;;;;;;;22.17;12.90;;;;;;;;;;5116160;28;20032;-65
2024/03/24 12:36:15;;;;;;;18.92;12.85;;;;;;;;;;5115753;28;20408;-62
2024/03/24 12:38:41;;;;;;;20.25;12.65;;;;;;;;;;5116040;28;20087;-64
2024/03/24 12:41:06;;;;;;;21.20;12.73;;;;;;;;;;5115856;28;20103;-65
2024/03/24 12:43:31;;;;;;;17.25;12.18;;;;;;;;;;5112619;28;20016;-65
2024/03/24 12:46:00;;;;;;;20.73;13.35;;;;;;;;;;5115966;28;20036;-65
2024/03/24 12:48:26;;;;;;;17.92;12.10;;;;;;;;;;5114751;28;20039;-64
2024/03/24 12:50:51;;;;;;;19.42;12.13;;;;;;;;;;5114540;28;20110;-64
2024/03/24 12:53:24;;;;;;;17.10;11.18;;;;;;;;;;5115766;28;20136;-65
2024/03/24 12:55:52;;;;;;;19.92;11.75;;;;;;;;;;5073758;28;20032;-59
2024/03/24 12:58:18;;;;;;;16.15;10.93;;;;;;;;;;5074698;28;20044;-65
2024/03/24 13:00:44;;;;;;;17.05;11.80;;;;;;;;;;5072789;28;20031;-64
2024/03/24 13:03:10;;;;;;;17.33;12.07;;;;;;;;;;5074400;28;20021;-64
2024/03/24 13:05:36;;;;;;;16.60;10.77;;;;;;;;;;5073225;28;20169;-65
2024/03/24 13:08:03;;;;;;;18.00;11.13;;;;;;;;;;5072803;28;20030;-65
2024/03/24 13:10:28;;;;;;;17.83;11.00;;;;;;;;;;5093211;28;20036;-65
2024/03/24 13:12:54;;;;;;;15.90;10.70;;;;;;;;;;5094968;28;20451;-65
2024/03/24 13:15:20;;;;;;;17.40;11.57;;;;;;;;;;5094066;28;20494;-65
2024/03/24 13:17:45;;;;;;;18.08;11.80;;;;;;;;;;5094540;28;20028;-65
2024/03/24 13:20:12;;;;;;;18.38;11.18;;;;;;;;;;5094819;28;20258;-65
2024/03/24 13:22:38;;;;;;;17.73;11.50;;;;;;;;;;5094924;28;20343;-64
2024/03/24 13:25:05;;;;;;;19.90;11.60;;;;;;;;;;5094860;28;20069;-63
2024/03/24 13:27:44;;;;;;;16.25;10.80;;;;;;;;;;5112532;28;20050;-65
2024/03/24 13:30:10;;;;;;;19.33;10.32;;;;;;;;;;5096961;28;20020;-64
2024/03/24 13:32:35;;;;;;;16.88;11.00;;;;;;;;;;5094374;28;20076;-65
2024/03/24 13:35:02;;;;;;;15.30;10.63;;;;;;;;;;5094341;28;20020;-66
2024/03/24 13:37:32;;;;;;;17.05;11.05;;;;;;;;;;5093986;28;20059;-64
2024/03/24 13:40:03;;;;;;;15.27;10.07;;;;;;;;;;5094406;28;20027;-65
2024/03/24 13:42:43;;;;;;;14.55;9.85;;;;;;;;;;5114487;28;20028;-65
2024/03/24 13:45:21;;;;;;;15.30;9.73;;;;;;;;;;5114480;28;20091;-65
2024/03/24 13:47:52;;;;;;;10.18;8.70;;;;;;;;;;5114184;28;20024;-67
2024/03/24 13:50:17;;;;;;;13.48;9.32;;;;;;;;;;5112151;27;20118;-65
2024/03/24 13:52:43;;;;;;;15.98;10.35;;;;;;;;;;5114429;28;20427;-66
2024/03/24 13:55:09;;;;;;;11.93;9.38;;;;;;;;;;5114248;28;20035;-63
2024/03/24 13:57:52;;;;;;;12.50;9.00;;;;;;;;;;5114138;28;20039;-64
2024/03/24 14:00:18;;;;;;;11.73;9.00;;;;;;;;;;5112264;28;20373;-65
2024/03/24 14:02:43;;;;;;;12.38;8.88;;;;;;;;;;5114350;28;20501;-65
2024/03/24 14:05:10;;;;;;;11.07;8.35;;;;;;;;;;5113075;28;20467;-65
2024/03/24 14:07:35;;;;;;;8.88;7.97;;;;;;;;;;5113379;28;20015;-65
2024/03/24 14:10:04;;;;;;;9.90;7.85;;;;;;;;;;5112926;28;20314;-65
2024/03/24 14:12:33;;;;;;;10.57;8.35;;;;;;;;;;5113649;28;20026;-67